Westchester, Indiana
Current Conditions -  °F | °C
As of 9:53 AM on Thursday 30 Oct 2014 (Local Time) from KMIE Reporting Station
Overcast Overcast  
Wind Chill: 45°   Ceiling: 3500
Heat Index: 45°   Visibility: 10mi
Dew Point: 36°   Wind: 0mph
Humidity: 71%   Direction: NA
Pressure: 30.17"   Gusts: NA
Location:  40.4312°N, 85.0058°W
Report Text: KMIE 301353Z 00000KT 10SM OVC035 07/02 A3017 RMK AO2 SLP216 T00720022
Loading
Personal Weather Stations






























Interactive Weather Map
Tropical Storm Tracking
New forecast layout! Learn more

10-Day Weather Forecast

Advertisements
Track Severe Weather on mobile